sensor_id;sensor_type;location;lat;lon;timestamp;temperature;humidity
38604;DHT22;24924;50.054;8.790;2024-02-26T00:02:22;6.00;99.90
38604;DHT22;24924;50.054;8.790;2024-02-26T00:05:08;6.00;99.90
38604;DHT22;24924;50.054;8.790;2024-02-26T00:07:54;6.00;99.90
38604;DHT22;24924;50.054;8.790;2024-02-26T00:10:40;6.10;99.90
38604;DHT22;24924;50.054;8.790;2024-02-26T00:13:26;6.30;99.90
38604;DHT22;24924;50.054;8.790;2024-02-26T00:16:12;6.40;99.90
38604;DHT22;24924;50.054;8.790;2024-02-26T00:18:58;6.30;99.90
38604;DHT22;24924;50.054;8.790;2024-02-26T00:21:44;6.40;99.90
38604;DHT22;24924;50.054;8.790;2024-02-26T00:24:31;6.60;99.90
38604;DHT22;24924;50.054;8.790;2024-02-26T00:27:17;6.60;99.90
38604;DHT22;24924;50.054;8.790;2024-02-26T00:30:03;6.60;99.90
38604;DHT22;24924;50.054;8.790;2024-02-26T00:32:49;6.70;99.90
38604;DHT22;24924;50.054;8.790;2024-02-26T00:35:35;6.70;99.90
38604;DHT22;24924;50.054;8.790;2024-02-26T00:38:21;6.80;99.90
38604;DHT22;24924;50.054;8.790;2024-02-26T00:41:07;6.80;99.90
38604;DHT22;24924;50.054;8.790;2024-02-26T00:43:54;6.80;99.90
38604;DHT22;24924;50.054;8.790;2024-02-26T00:46:40;6.80;99.90
38604;DHT22;24924;50.054;8.790;2024-02-26T00:49:26;6.80;99.90
38604;DHT22;24924;50.054;8.790;2024-02-26T00:52:12;6.80;99.90
38604;DHT22;24924;50.054;8.790;2024-02-26T00:54:58;6.80;99.90
38604;DHT22;24924;50.054;8.790;2024-02-26T00:57:45;6.80;99.90
38604;DHT22;24924;50.054;8.790;2024-02-26T01:00:32;6.80;99.90
38604;DHT22;24924;50.054;8.790;2024-02-26T01:03:18;6.80;99.90
38604;DHT22;24924;50.054;8.790;2024-02-26T01:06:05;6.80;99.90
38604;DHT22;24924;50.054;8.790;2024-02-26T01:08:50;6.80;99.90
38604;DHT22;24924;50.054;8.790;2024-02-26T01:11:37;6.80;99.90
38604;DHT22;24924;50.054;8.790;2024-02-26T01:14:23;6.90;99.90
38604;DHT22;24924;50.054;8.790;2024-02-26T01:17:09;6.80;99.90
38604;DHT22;24924;50.054;8.790;2024-02-26T01:19:55;6.70;99.90
38604;DHT22;24924;50.054;8.790;2024-02-26T01:22:43;6.80;99.90
38604;DHT22;24924;50.054;8.790;2024-02-26T01:25:29;6.90;99.90
38604;DHT22;24924;50.054;8.790;2024-02-26T01:28:16;6.80;99.90
38604;DHT22;24924;50.054;8.790;2024-02-26T01:31:02;6.90;99.90
38604;DHT22;24924;50.054;8.790;2024-02-26T01:33:51;7.00;99.90
38604;DHT22;24924;50.054;8.790;2024-02-26T01:36:37;6.90;99.90
38604;DHT22;24924;50.054;8.790;2024-02-26T01:39:23;6.90;99.90
38604;DHT22;24924;50.054;8.790;2024-02-26T01:42:09;7.00;99.90
38604;DHT22;24924;50.054;8.790;2024-02-26T01:44:55;7.00;99.90
38604;DHT22;24924;50.054;8.790;2024-02-26T01:47:42;6.90;99.90
38604;DHT22;24924;50.054;8.790;2024-02-26T01:50:28;7.00;99.90
38604;DHT22;24924;50.054;8.790;2024-02-26T01:53:15;6.90;99.90
38604;DHT22;24924;50.054;8.790;2024-02-26T01:56:03;6.90;99.90
38604;DHT22;24924;50.054;8.790;2024-02-26T01:58:49;6.90;99.90
38604;DHT22;24924;50.054;8.790;2024-02-26T02:01:35;6.90;99.90
38604;DHT22;24924;50.054;8.790;2024-02-26T02:04:23;6.80;99.90
38604;DHT22;24924;50.054;8.790;2024-02-26T02:07:10;6.80;99.90
38604;DHT22;24924;50.054;8.790;2024-02-26T02:09:56;6.80;99.90
38604;DHT22;24924;50.054;8.790;2024-02-26T02:12:43;6.80;99.90
38604;DHT22;24924;50.054;8.790;2024-02-26T02:15:29;6.90;99.90
38604;DHT22;24924;50.054;8.790;2024-02-26T02:18:15;6.90;99.90
38604;DHT22;24924;50.054;8.790;2024-02-26T02:21:01;6.90;99.90
38604;DHT22;24924;50.054;8.790;2024-02-26T02:23:48;6.90;99.90
38604;DHT22;24924;50.054;8.790;2024-02-26T02:26:35;7.00;99.90
38604;DHT22;24924;50.054;8.790;2024-02-26T02:29:21;7.00;99.90
38604;DHT22;24924;50.054;8.790;2024-02-26T02:32:08;7.10;99.90
38604;DHT22;24924;50.054;8.790;2024-02-26T02:34:55;7.10;99.90
38604;DHT22;24924;50.054;8.790;2024-02-26T02:37:42;7.20;99.90
38604;DHT22;24924;50.054;8.790;2024-02-26T02:40:28;7.20;99.90
38604;DHT22;24924;50.054;8.790;2024-02-26T02:43:14;7.10;99.90
38604;DHT22;24924;50.054;8.790;2024-02-26T02:46:00;7.10;99.90
38604;DHT22;24924;50.054;8.790;2024-02-26T02:48:46;7.00;99.90
38604;DHT22;24924;50.054;8.790;2024-02-26T02:51:32;6.90;99.90
38604;DHT22;24924;50.054;8.790;2024-02-26T02:54:18;7.00;99.90
38604;DHT22;24924;50.054;8.790;2024-02-26T02:57:04;7.00;99.90
38604;DHT22;24924;50.054;8.790;2024-02-26T02:59:50;7.10;99.90
38604;DHT22;24924;50.054;8.790;2024-02-26T03:02:37;7.20;99.90
38604;DHT22;24924;50.054;8.790;2024-02-26T03:05:23;7.20;99.90
38604;DHT22;24924;50.054;8.790;2024-02-26T03:08:09;7.10;99.90
38604;DHT22;24924;50.054;8.790;2024-02-26T03:10:57;7.10;99.90
38604;DHT22;24924;50.054;8.790;2024-02-26T03:13:44;7.10;99.90
38604;DHT22;24924;50.054;8.790;2024-02-26T03:16:30;7.20;99.90
38604;DHT22;24924;50.054;8.790;2024-02-26T03:19:16;7.20;99.90
38604;DHT22;24924;50.054;8.790;2024-02-26T03:22:03;7.10;99.90
38604;DHT22;24924;50.054;8.790;2024-02-26T03:24:49;7.10;99.90
38604;DHT22;24924;50.054;8.790;2024-02-26T03:27:35;7.10;99.90
38604;DHT22;24924;50.054;8.790;2024-02-26T03:30:21;7.10;99.90
38604;DHT22;24924;50.054;8.790;2024-02-26T03:33:07;7.10;99.90
38604;DHT22;24924;50.054;8.790;2024-02-26T03:35:54;7.30;99.90
38604;DHT22;24924;50.054;8.790;2024-02-26T03:38:40;7.30;99.90
38604;DHT22;24924;50.054;8.790;2024-02-26T03:41:26;7.30;99.90
38604;DHT22;24924;50.054;8.790;2024-02-26T03:44:12;7.40;99.90
38604;DHT22;24924;50.054;8.790;2024-02-26T03:46:58;7.10;99.90
38604;DHT22;24924;50.054;8.790;2024-02-26T03:49:44;7.00;99.90
38604;DHT22;24924;50.054;8.790;2024-02-26T03:52:31;6.90;99.90
38604;DHT22;24924;50.054;8.790;2024-02-26T03:55:17;7.10;99.90
38604;DHT22;24924;50.054;8.790;2024-02-26T03:58:07;7.10;99.90
38604;DHT22;24924;50.054;8.790;2024-02-26T04:00:52;7.20;99.90
38604;DHT22;24924;50.054;8.790;2024-02-26T04:03:39;7.20;99.90
38604;DHT22;24924;50.054;8.790;2024-02-26T04:06:25;7.20;99.90
38604;DHT22;24924;50.054;8.790;2024-02-26T04:09:13;7.30;99.90
38604;DHT22;24924;50.054;8.790;2024-02-26T04:11:59;7.30;99.90
38604;DHT22;24924;50.054;8.790;2024-02-26T04:14:46;7.30;99.90
38604;DHT22;24924;50.054;8.790;2024-02-26T04:17:32;7.20;99.90
38604;DHT22;24924;50.054;8.790;2024-02-26T04:20:18;7.30;99.90
38604;DHT22;24924;50.054;8.790;2024-02-26T04:23:04;7.20;99.90
38604;DHT22;24924;50.054;8.790;2024-02-26T04:25:51;7.30;99.90
38604;DHT22;24924;50.054;8.790;2024-02-26T04:28:39;7.20;99.90
38604;DHT22;24924;50.054;8.790;2024-02-26T04:31:25;7.20;99.90
38604;DHT22;24924;50.054;8.790;2024-02-26T04:34:12;7.20;99.90
38604;DHT22;24924;50.054;8.790;2024-02-26T04:36:58;7.30;99.90
38604;DHT22;24924;50.054;8.790;2024-02-26T04:39:44;7.20;99.90
38604;DHT22;24924;50.054;8.790;2024-02-26T04:42:31;7.30;99.90
38604;DHT22;24924;50.054;8.790;2024-02-26T04:45:17;7.30;99.90
38604;DHT22;24924;50.054;8.790;2024-02-26T04:48:04;7.30;99.90
38604;DHT22;24924;50.054;8.790;2024-02-26T04:50:50;7.30;99.90
38604;DHT22;24924;50.054;8.790;2024-02-26T04:53:36;7.30;99.90
38604;DHT22;24924;50.054;8.790;2024-02-26T04:56:22;7.20;99.90
38604;DHT22;24924;50.054;8.790;2024-02-26T04:59:08;7.30;99.90
38604;DHT22;24924;50.054;8.790;2024-02-26T05:01:54;7.30;99.90
38604;DHT22;24924;50.054;8.790;2024-02-26T05:04:40;7.30;99.90
38604;DHT22;24924;50.054;8.790;2024-02-26T05:07:26;7.30;99.90
38604;DHT22;24924;50.054;8.790;2024-02-26T05:10:13;7.30;99.90
38604;DHT22;24924;50.054;8.790;2024-02-26T05:12:59;7.40;99.90
38604;DHT22;24924;50.054;8.790;2024-02-26T05:15:45;7.30;99.90
38604;DHT22;24924;50.054;8.790;2024-02-26T05:18:35;7.10;99.90
38604;DHT22;24924;50.054;8.790;2024-02-26T05:21:21;7.20;99.90
38604;DHT22;24924;50.054;8.790;2024-02-26T05:24:07;7.20;99.90
38604;DHT22;24924;50.054;8.790;2024-02-26T05:26:53;7.10;99.90
38604;DHT22;24924;50.054;8.790;2024-02-26T05:29:40;7.10;99.90
38604;DHT22;24924;50.054;8.790;2024-02-26T05:32:26;7.00;99.90
38604;DHT22;24924;50.054;8.790;2024-02-26T05:35:13;7.00;99.90
38604;DHT22;24924;50.054;8.790;2024-02-26T05:37:59;7.00;99.90
38604;DHT22;24924;50.054;8.790;2024-02-26T05:40:45;7.00;99.90
38604;DHT22;24924;50.054;8.790;2024-02-26T05:43:31;6.90;99.90
38604;DHT22;24924;50.054;8.790;2024-02-26T05:46:18;7.00;99.90
38604;DHT22;24924;50.054;8.790;2024-02-26T05:49:04;6.90;99.90
38604;DHT22;24924;50.054;8.790;2024-02-26T05:51:50;6.90;99.90
38604;DHT22;24924;50.054;8.790;2024-02-26T05:54:36;6.80;99.90
38604;DHT22;24924;50.054;8.790;2024-02-26T05:57:23;6.80;99.90
38604;DHT22;24924;50.054;8.790;2024-02-26T06:00:09;6.80;99.90
38604;DHT22;24924;50.054;8.790;2024-02-26T06:02:59;6.80;99.90
38604;DHT22;24924;50.054;8.790;2024-02-26T06:05:46;6.90;99.90
38604;DHT22;24924;50.054;8.790;2024-02-26T06:08:32;6.80;99.90
38604;DHT22;24924;50.054;8.790;2024-02-26T06:11:18;6.80;99.90
38604;DHT22;24924;50.054;8.790;2024-02-26T06:14:04;6.70;99.90
38604;DHT22;24924;50.054;8.790;2024-02-26T06:16:50;6.70;99.90
38604;DHT22;24924;50.054;8.790;2024-02-26T06:19:36;6.70;99.90
38604;DHT22;24924;50.054;8.790;2024-02-26T06:22:23;6.60;99.90
38604;DHT22;24924;50.054;8.790;2024-02-26T06:25:09;6.60;99.90
38604;DHT22;24924;50.054;8.790;2024-02-26T06:27:55;6.60;99.90
38604;DHT22;24924;50.054;8.790;2024-02-26T06:30:41;6.60;99.90
38604;DHT22;24924;50.054;8.790;2024-02-26T06:33:27;6.60;99.90
38604;DHT22;24924;50.054;8.790;2024-02-26T06:36:13;6.50;99.90
38604;DHT22;24924;50.054;8.790;2024-02-26T06:38:59;6.50;99.90
38604;DHT22;24924;50.054;8.790;2024-02-26T06:41:46;6.50;99.90
38604;DHT22;24924;50.054;8.790;2024-02-26T06:44:33;6.50;99.90
38604;DHT22;24924;50.054;8.790;2024-02-26T06:47:19;6.50;99.90
38604;DHT22;24924;50.054;8.790;2024-02-26T06:50:06;6.50;99.90
38604;DHT22;24924;50.054;8.790;2024-02-26T06:52:52;6.50;99.90
38604;DHT22;24924;50.054;8.790;2024-02-26T06:55:38;6.40;99.90
38604;DHT22;24924;50.054;8.790;2024-02-26T06:58:26;6.40;99.90
38604;DHT22;24924;50.054;8.790;2024-02-26T07:01:12;6.40;99.90
38604;DHT22;24924;50.054;8.790;2024-02-26T07:03:58;6.40;99.90
38604;DHT22;24924;50.054;8.790;2024-02-26T07:06:44;6.30;99.90
38604;DHT22;24924;50.054;8.790;2024-02-26T07:09:32;6.30;99.90
38604;DHT22;24924;50.054;8.790;2024-02-26T07:12:18;6.30;99.90
38604;DHT22;24924;50.054;8.790;2024-02-26T07:15:07;6.30;99.90
38604;DHT22;24924;50.054;8.790;2024-02-26T07:17:53;6.30;99.90
38604;DHT22;24924;50.054;8.790;2024-02-26T07:20:39;6.30;99.90
38604;DHT22;24924;50.054;8.790;2024-02-26T07:23:26;6.40;99.90
38604;DHT22;24924;50.054;8.790;2024-02-26T07:26:11;6.30;99.90
38604;DHT22;24924;50.054;8.790;2024-02-26T07:28:57;6.30;99.90
38604;DHT22;24924;50.054;8.790;2024-02-26T07:31:43;6.30;99.90
38604;DHT22;24924;50.054;8.790;2024-02-26T07:34:30;6.50;99.90
38604;DHT22;24924;50.054;8.790;2024-02-26T07:37:16;6.50;99.90
38604;DHT22;24924;50.054;8.790;2024-02-26T07:40:02;6.60;99.90
38604;DHT22;24924;50.054;8.790;2024-02-26T07:42:49;6.50;99.90
38604;DHT22;24924;50.054;8.790;2024-02-26T07:45:34;6.50;99.90
38604;DHT22;24924;50.054;8.790;2024-02-26T07:48:22;6.60;99.90
38604;DHT22;24924;50.054;8.790;2024-02-26T07:51:08;6.60;99.90
38604;DHT22;24924;50.054;8.790;2024-02-26T07:53:54;6.60;99.90
38604;DHT22;24924;50.054;8.790;2024-02-26T07:56:40;6.50;99.90
38604;DHT22;24924;50.054;8.790;2024-02-26T07:59:27;6.50;99.90
38604;DHT22;24924;50.054;8.790;2024-02-26T08:02:12;6.50;99.90
38604;DHT22;24924;50.054;8.790;2024-02-26T08:04:59;6.40;99.90
38604;DHT22;24924;50.054;8.790;2024-02-26T08:07:45;6.30;99.90
38604;DHT22;24924;50.054;8.790;2024-02-26T08:10:31;6.30;99.90
38604;DHT22;24924;50.054;8.790;2024-02-26T08:13:17;6.40;99.90
38604;DHT22;24924;50.054;8.790;2024-02-26T08:16:03;6.30;99.90
38604;DHT22;24924;50.054;8.790;2024-02-26T08:18:49;6.40;99.90
38604;DHT22;24924;50.054;8.790;2024-02-26T08:21:35;6.60;99.90
38604;DHT22;24924;50.054;8.790;2024-02-26T08:24:23;6.60;99.90
38604;DHT22;24924;50.054;8.790;2024-02-26T08:27:09;6.60;99.90
38604;DHT22;24924;50.054;8.790;2024-02-26T08:29:55;6.60;99.90
38604;DHT22;24924;50.054;8.790;2024-02-26T08:32:45;6.60;99.90
38604;DHT22;24924;50.054;8.790;2024-02-26T08:35:31;6.80;99.90
38604;DHT22;24924;50.054;8.790;2024-02-26T08:38:17;6.80;99.90
38604;DHT22;24924;50.054;8.790;2024-02-26T08:41:04;6.90;99.90
38604;DHT22;24924;50.054;8.790;2024-02-26T08:43:50;6.90;99.90
38604;DHT22;24924;50.054;8.790;2024-02-26T08:46:36;6.90;99.90
38604;DHT22;24924;50.054;8.790;2024-02-26T08:49:23;7.00;99.90
38604;DHT22;24924;50.054;8.790;2024-02-26T08:52:09;6.80;99.90
38604;DHT22;24924;50.054;8.790;2024-02-26T08:54:56;6.90;99.90
38604;DHT22;24924;50.054;8.790;2024-02-26T08:57:43;6.80;99.90
38604;DHT22;24924;50.054;8.790;2024-02-26T09:00:29;6.90;99.90
38604;DHT22;24924;50.054;8.790;2024-02-26T09:03:15;7.00;99.90
38604;DHT22;24924;50.054;8.790;2024-02-26T09:06:01;7.00;99.90
38604;DHT22;24924;50.054;8.790;2024-02-26T09:08:48;7.00;99.90
38604;DHT22;24924;50.054;8.790;2024-02-26T09:11:34;6.90;99.90
38604;DHT22;24924;50.054;8.790;2024-02-26T09:14:20;6.90;99.90
38604;DHT22;24924;50.054;8.790;2024-02-26T09:17:06;6.90;99.90
38604;DHT22;24924;50.054;8.790;2024-02-26T09:19:53;7.00;99.90
38604;DHT22;24924;50.054;8.790;2024-02-26T09:22:39;7.00;99.90
38604;DHT22;24924;50.054;8.790;2024-02-26T09:25:25;6.90;99.90
38604;DHT22;24924;50.054;8.790;2024-02-26T09:28:11;6.90;99.90
38604;DHT22;24924;50.054;8.790;2024-02-26T09:30:57;7.00;99.90
38604;DHT22;24924;50.054;8.790;2024-02-26T09:33:44;7.10;99.90
38604;DHT22;24924;50.054;8.790;2024-02-26T09:36:30;7.10;99.90
38604;DHT22;24924;50.054;8.790;2024-02-26T09:39:16;7.10;99.90
38604;DHT22;24924;50.054;8.790;2024-02-26T09:42:09;7.30;99.90
38604;DHT22;24924;50.054;8.790;2024-02-26T09:44:57;7.20;99.90
38604;DHT22;24924;50.054;8.790;2024-02-26T09:47:48;7.30;99.90
38604;DHT22;24924;50.054;8.790;2024-02-26T09:50:35;7.20;99.90
38604;DHT22;24924;50.054;8.790;2024-02-26T09:53:22;7.20;99.90
38604;DHT22;24924;50.054;8.790;2024-02-26T09:56:09;7.40;99.90
38604;DHT22;24924;50.054;8.790;2024-02-26T09:58:58;7.40;99.90
38604;DHT22;24924;50.054;8.790;2024-02-26T10:01:44;7.50;99.90
38604;DHT22;24924;50.054;8.790;2024-02-26T10:04:32;7.60;99.90
38604;DHT22;24924;50.054;8.790;2024-02-26T10:07:18;7.60;99.90
38604;DHT22;24924;50.054;8.790;2024-02-26T10:10:04;7.60;99.90
38604;DHT22;24924;50.054;8.790;2024-02-26T10:12:50;7.60;99.90
38604;DHT22;24924;50.054;8.790;2024-02-26T10:15:37;7.70;99.90
38604;DHT22;24924;50.054;8.790;2024-02-26T10:18:23;7.80;99.90
38604;DHT22;24924;50.054;8.790;2024-02-26T10:21:10;8.00;99.90
38604;DHT22;24924;50.054;8.790;2024-02-26T10:23:56;8.10;99.90
38604;DHT22;24924;50.054;8.790;2024-02-26T10:26:46;8.20;99.90
38604;DHT22;24924;50.054;8.790;2024-02-26T10:29:32;8.10;99.90
38604;DHT22;24924;50.054;8.790;2024-02-26T10:32:18;8.30;99.90
38604;DHT22;24924;50.054;8.790;2024-02-26T10:35:08;8.60;99.90
38604;DHT22;24924;50.054;8.790;2024-02-26T10:37:54;8.80;99.90
38604;DHT22;24924;50.054;8.790;2024-02-26T10:40:40;9.10;99.90
38604;DHT22;24924;50.054;8.790;2024-02-26T10:43:27;9.40;99.90
38604;DHT22;24924;50.054;8.790;2024-02-26T10:46:14;9.40;99.90
38604;DHT22;24924;50.054;8.790;2024-02-26T10:49:00;9.60;99.90
38604;DHT22;24924;50.054;8.790;2024-02-26T10:51:55;9.90;99.90
38604;DHT22;24924;50.054;8.790;2024-02-26T10:54:47;10.00;99.90
38604;DHT22;24924;50.054;8.790;2024-02-26T10:57:35;10.50;99.90
38604;DHT22;24924;50.054;8.790;2024-02-26T11:00:23;11.30;99.90
38604;DHT22;24924;50.054;8.790;2024-02-26T11:03:11;11.70;99.90
38604;DHT22;24924;50.054;8.790;2024-02-26T11:05:58;12.30;99.90
38604;DHT22;24924;50.054;8.790;2024-02-26T11:08:48;12.10;99.90
38604;DHT22;24924;50.054;8.790;2024-02-26T11:11:34;12.00;99.90
38604;DHT22;24924;50.054;8.790;2024-02-26T11:14:21;11.30;99.90
38604;DHT22;24924;50.054;8.790;2024-02-26T11:17:12;11.20;99.90
38604;DHT22;24924;50.054;8.790;2024-02-26T11:19:59;10.80;99.90
38604;DHT22;24924;50.054;8.790;2024-02-26T11:22:46;10.60;99.90
38604;DHT22;24924;50.054;8.790;2024-02-26T11:25:32;10.60;99.90
38604;DHT22;24924;50.054;8.790;2024-02-26T11:28:19;11.20;99.90
38604;DHT22;24924;50.054;8.790;2024-02-26T11:31:07;11.30;99.90
38604;DHT22;24924;50.054;8.790;2024-02-26T11:33:54;11.40;99.90
38604;DHT22;24924;50.054;8.790;2024-02-26T11:36:42;11.60;99.90
38604;DHT22;24924;50.054;8.790;2024-02-26T11:39:28;11.60;99.90
38604;DHT22;24924;50.054;8.790;2024-02-26T11:42:16;11.80;99.90
38604;DHT22;24924;50.054;8.790;2024-02-26T11:45:03;12.50;99.90
38604;DHT22;24924;50.054;8.790;2024-02-26T11:47:56;13.00;99.90
38604;DHT22;24924;50.054;8.790;2024-02-26T11:50:46;12.60;99.90
38604;DHT22;24924;50.054;8.790;2024-02-26T11:53:32;12.30;99.90
38604;DHT22;24924;50.054;8.790;2024-02-26T11:56:21;11.90;99.90
38604;DHT22;24924;50.054;8.790;2024-02-26T11:59:38;11.70;99.90
38604;DHT22;24924;50.054;8.790;2024-02-26T12:02:43;11.50;99.90
38604;DHT22;24924;50.054;8.790;2024-02-26T12:05:32;11.50;99.90
38604;DHT22;24924;50.054;8.790;2024-02-26T12:08:21;11.80;99.90
38604;DHT22;24924;50.054;8.790;2024-02-26T12:11:14;11.90;99.90
38604;DHT22;24924;50.054;8.790;2024-02-26T12:14:01;12.20;99.90
38604;DHT22;24924;50.054;8.790;2024-02-26T12:16:47;12.00;99.90
38604;DHT22;24924;50.054;8.790;2024-02-26T12:19:35;11.90;99.90
38604;DHT22;24924;50.054;8.790;2024-02-26T12:22:23;11.60;99.90
38604;DHT22;24924;50.054;8.790;2024-02-26T12:25:10;12.00;99.90
38604;DHT22;24924;50.054;8.790;2024-02-26T12:27:57;12.20;99.90
38604;DHT22;24924;50.054;8.790;2024-02-26T12:30:43;12.30;99.90
38604;DHT22;24924;50.054;8.790;2024-02-26T12:33:30;12.60;99.90
38604;DHT22;24924;50.054;8.790;2024-02-26T12:36:16;12.50;99.90
38604;DHT22;24924;50.054;8.790;2024-02-26T12:39:03;11.90;99.90
38604;DHT22;24924;50.054;8.790;2024-02-26T12:41:52;11.60;99.90
38604;DHT22;24924;50.054;8.790;2024-02-26T12:44:38;11.50;99.90
38604;DHT22;24924;50.054;8.790;2024-02-26T12:47:24;11.50;99.90
38604;DHT22;24924;50.054;8.790;2024-02-26T12:50:10;11.60;99.90
38604;DHT22;24924;50.054;8.790;2024-02-26T12:52:56;11.50;99.90
38604;DHT22;24924;50.054;8.790;2024-02-26T12:55:43;11.80;99.90
38604;DHT22;24924;50.054;8.790;2024-02-26T12:58:30;12.10;99.90
38604;DHT22;24924;50.054;8.790;2024-02-26T13:01:22;12.00;99.90
38604;DHT22;24924;50.054;8.790;2024-02-26T13:04:09;11.80;99.90
38604;DHT22;24924;50.054;8.790;2024-02-26T13:06:56;11.80;99.90
38604;DHT22;24924;50.054;8.790;2024-02-26T13:09:48;11.90;99.90
38604;DHT22;24924;50.054;8.790;2024-02-26T13:12:34;11.70;99.90
38604;DHT22;24924;50.054;8.790;2024-02-26T13:15:21;11.60;99.90
38604;DHT22;24924;50.054;8.790;2024-02-26T13:18:12;11.40;99.90
38604;DHT22;24924;50.054;8.790;2024-02-26T13:21:12;11.30;99.90
38604;DHT22;24924;50.054;8.790;2024-02-26T13:23:58;11.30;99.90
38604;DHT22;24924;50.054;8.790;2024-02-26T13:26:44;11.40;99.90
38604;DHT22;24924;50.054;8.790;2024-02-26T13:29:30;11.50;99.90
38604;DHT22;24924;50.054;8.790;2024-02-26T13:32:17;11.50;99.90
38604;DHT22;24924;50.054;8.790;2024-02-26T13:35:12;11.40;99.90
38604;DHT22;24924;50.054;8.790;2024-02-26T13:37:59;11.70;99.90
38604;DHT22;24924;50.054;8.790;2024-02-26T13:40:45;11.70;99.90
38604;DHT22;24924;50.054;8.790;2024-02-26T13:43:31;11.60;99.90
38604;DHT22;24924;50.054;8.790;2024-02-26T13:46:17;11.60;99.90
38604;DHT22;24924;50.054;8.790;2024-02-26T13:49:03;11.60;99.90
38604;DHT22;24924;50.054;8.790;2024-02-26T13:51:49;11.70;99.90
38604;DHT22;24924;50.054;8.790;2024-02-26T13:54:35;11.70;99.90
38604;DHT22;24924;50.054;8.790;2024-02-26T13:57:24;11.60;99.90
38604;DHT22;24924;50.054;8.790;2024-02-26T14:00:11;11.60;99.90
38604;DHT22;24924;50.054;8.790;2024-02-26T14:03:00;11.40;99.90
38604;DHT22;24924;50.054;8.790;2024-02-26T14:05:47;11.60;99.90
38604;DHT22;24924;50.054;8.790;2024-02-26T14:08:33;11.70;99.90
38604;DHT22;24924;50.054;8.790;2024-02-26T14:11:19;11.80;99.90
38604;DHT22;24924;50.054;8.790;2024-02-26T14:14:05;12.20;99.90
38604;DHT22;24924;50.054;8.790;2024-02-26T14:16:51;12.40;99.90
38604;DHT22;24924;50.054;8.790;2024-02-26T14:19:38;12.90;99.90
38604;DHT22;24924;50.054;8.790;2024-02-26T14:22:25;13.70;99.90
38604;DHT22;24924;50.054;8.790;2024-02-26T14:25:16;13.50;99.90
38604;DHT22;24924;50.054;8.790;2024-02-26T14:28:02;13.40;99.90
38604;DHT22;24924;50.054;8.790;2024-02-26T14:30:48;13.30;99.90
38604;DHT22;24924;50.054;8.790;2024-02-26T14:33:37;13.10;99.90
38604;DHT22;24924;50.054;8.790;2024-02-26T14:36:24;13.10;99.90
38604;DHT22;24924;50.054;8.790;2024-02-26T14:39:10;13.10;99.90
38604;DHT22;24924;50.054;8.790;2024-02-26T14:41:58;12.80;99.90
38604;DHT22;24924;50.054;8.790;2024-02-26T14:44:45;12.70;99.90
38604;DHT22;24924;50.054;8.790;2024-02-26T14:47:33;12.70;99.90
38604;DHT22;24924;50.054;8.790;2024-02-26T14:50:19;12.80;99.90
38604;DHT22;24924;50.054;8.790;2024-02-26T14:53:05;13.00;99.90
38604;DHT22;24924;50.054;8.790;2024-02-26T14:55:52;12.70;99.90
38604;DHT22;24924;50.054;8.790;2024-02-26T14:58:38;12.50;99.90
38604;DHT22;24924;50.054;8.790;2024-02-26T15:01:24;12.40;99.90
38604;DHT22;24924;50.054;8.790;2024-02-26T15:04:10;12.30;99.90
38604;DHT22;24924;50.054;8.790;2024-02-26T15:06:56;12.20;99.90
38604;DHT22;24924;50.054;8.790;2024-02-26T15:09:43;12.00;99.90
38604;DHT22;24924;50.054;8.790;2024-02-26T15:12:29;12.00;99.90
38604;DHT22;24924;50.054;8.790;2024-02-26T15:15:18;12.00;99.90
38604;DHT22;24924;50.054;8.790;2024-02-26T15:18:05;11.80;99.90
38604;DHT22;24924;50.054;8.790;2024-02-26T15:20:51;12.70;99.90
38604;DHT22;24924;50.054;8.790;2024-02-26T15:23:38;12.10;99.90
38604;DHT22;24924;50.054;8.790;2024-02-26T15:26:24;12.10;99.90
38604;DHT22;24924;50.054;8.790;2024-02-26T15:29:12;12.20;99.90
38604;DHT22;24924;50.054;8.790;2024-02-26T15:31:58;12.20;99.90
38604;DHT22;24924;50.054;8.790;2024-02-26T15:34:45;12.20;99.90
38604;DHT22;24924;50.054;8.790;2024-02-26T15:37:31;12.10;99.90
38604;DHT22;24924;50.054;8.790;2024-02-26T15:40:18;12.00;99.90
38604;DHT22;24924;50.054;8.790;2024-02-26T15:43:04;11.70;99.90
38604;DHT22;24924;50.054;8.790;2024-02-26T15:45:50;11.70;99.90
38604;DHT22;24924;50.054;8.790;2024-02-26T15:48:37;11.60;99.90
38604;DHT22;24924;50.054;8.790;2024-02-26T15:51:23;11.60;99.90
38604;DHT22;24924;50.054;8.790;2024-02-26T15:54:12;11.60;99.90
38604;DHT22;24924;50.054;8.790;2024-02-26T15:56:59;11.80;99.90
38604;DHT22;24924;50.054;8.790;2024-02-26T15:59:45;11.80;99.90
38604;DHT22;24924;50.054;8.790;2024-02-26T16:02:31;12.40;99.90
38604;DHT22;24924;50.054;8.790;2024-02-26T16:05:18;11.90;99.90
38604;DHT22;24924;50.054;8.790;2024-02-26T16:08:13;11.70;99.90
38604;DHT22;24924;50.054;8.790;2024-02-26T16:11:06;11.70;99.90
38604;DHT22;24924;50.054;8.790;2024-02-26T16:14:21;11.90;99.90
38604;DHT22;24924;50.054;8.790;2024-02-26T16:17:42;11.90;99.90
38604;DHT22;24924;50.054;8.790;2024-02-26T16:20:22;11.80;99.90
38604;DHT22;24924;50.054;8.790;2024-02-26T16:23:10;11.70;99.90
38604;DHT22;24924;50.054;8.790;2024-02-26T16:25:56;11.60;99.90
38604;DHT22;24924;50.054;8.790;2024-02-26T16:28:42;11.50;99.90
38604;DHT22;24924;50.054;8.790;2024-02-26T16:31:29;11.40;99.90
38604;DHT22;24924;50.054;8.790;2024-02-26T16:34:15;11.20;99.90
38604;DHT22;24924;50.054;8.790;2024-02-26T16:37:08;11.20;99.90
38604;DHT22;24924;50.054;8.790;2024-02-26T16:39:59;11.00;99.90
38604;DHT22;24924;50.054;8.790;2024-02-26T16:42:46;10.90;99.90
38604;DHT22;24924;50.054;8.790;2024-02-26T16:45:33;11.00;99.90
38604;DHT22;24924;50.054;8.790;2024-02-26T16:48:19;10.90;99.90
38604;DHT22;24924;50.054;8.790;2024-02-26T16:51:05;10.70;99.90
38604;DHT22;24924;50.054;8.790;2024-02-26T16:53:51;10.70;99.90
38604;DHT22;24924;50.054;8.790;2024-02-26T16:56:37;10.60;99.90
38604;DHT22;24924;50.054;8.790;2024-02-26T16:59:23;10.50;99.90
38604;DHT22;24924;50.054;8.790;2024-02-26T17:02:13;10.50;99.90
38604;DHT22;24924;50.054;8.790;2024-02-26T17:04:59;10.40;99.90
38604;DHT22;24924;50.054;8.790;2024-02-26T17:07:45;10.40;99.90
38604;DHT22;24924;50.054;8.790;2024-02-26T17:10:32;10.30;99.90
38604;DHT22;24924;50.054;8.790;2024-02-26T17:13:17;10.30;99.90
38604;DHT22;24924;50.054;8.790;2024-02-26T17:16:05;10.20;99.90
38604;DHT22;24924;50.054;8.790;2024-02-26T17:18:51;10.20;99.90
38604;DHT22;24924;50.054;8.790;2024-02-26T17:21:37;10.10;99.90
38604;DHT22;24924;50.054;8.790;2024-02-26T17:24:23;10.10;99.90
38604;DHT22;24924;50.054;8.790;2024-02-26T17:27:09;10.00;99.90
38604;DHT22;24924;50.054;8.790;2024-02-26T17:29:55;9.90;99.90
38604;DHT22;24924;50.054;8.790;2024-02-26T17:32:41;9.90;99.90
38604;DHT22;24924;50.054;8.790;2024-02-26T17:35:27;9.90;99.90
38604;DHT22;24924;50.054;8.790;2024-02-26T17:38:13;9.90;99.90
38604;DHT22;24924;50.054;8.790;2024-02-26T17:40:59;9.90;99.90
38604;DHT22;24924;50.054;8.790;2024-02-26T17:43:45;9.80;99.90
38604;DHT22;24924;50.054;8.790;2024-02-26T17:46:31;9.80;99.90